Terminal Aerodrome Forecast
Issued by NWS

Home | Current Version | Previous Version | Text Only | Print | Product List | Glossary On
Versions: 1 2 3 4 5 6 7 8 9 10 11 12 13
000
FTUS42 KTBW 190526
TAFPIE
TAF
KPIE 190526Z 1906/2006 VRB04KT P6SM FEW025 SCT250
     FM191500 04005KT P6SM FEW030 SCT250
     FM192000 33007KT P6SM VCTS SCT040CB BKN250
     FM200100 VRB04KT P6SM FEW040 SCT250=

USA.gov is the U.S. government's official web portal to all federal, state and local government web resources and services.